sensor_id;sensor_type;location;lat;lon;timestamp;pressure;altitude;pressure_sealevel;temperature;humidity
76311;BME280;65120;59.304;18.294;2023-03-05T00:01:43;100318.16;;;-0.90;48.73
76311;BME280;65120;59.304;18.294;2023-03-05T00:04:12;100327.53;;;-0.91;48.23
76311;BME280;65120;59.304;18.294;2023-03-05T00:06:40;100318.94;;;-0.93;48.87
76311;BME280;65120;59.304;18.294;2023-03-05T00:09:07;100307.72;;;-0.98;48.50
76311;BME280;65120;59.304;18.294;2023-03-05T00:11:34;100332.56;;;-0.95;48.56
76311;BME280;65120;59.304;18.294;2023-03-05T00:14:03;100317.19;;;-0.95;48.35
76311;BME280;65120;59.304;18.294;2023-03-05T00:16:31;100327.38;;;-0.98;49.02
76311;BME280;65120;59.304;18.294;2023-03-05T00:18:59;100316.25;;;-0.99;48.67
76311;BME280;65120;59.304;18.294;2023-03-05T00:21:27;100319.63;;;-1.01;48.93
76311;BME280;65120;59.304;18.294;2023-03-05T00:23:55;100317.06;;;-1.01;49.23
76311;BME280;65120;59.304;18.294;2023-03-05T00:26:24;100320.47;;;-1.02;48.80
76311;BME280;65120;59.304;18.294;2023-03-05T00:28:51;100320.47;;;-1.02;48.88
76311;BME280;65120;59.304;18.294;2023-03-05T00:31:22;100322.13;;;-1.04;48.98
76311;BME280;65120;59.304;18.294;2023-03-05T00:33:51;100320.34;;;-1.07;49.25
76311;BME280;65120;59.304;18.294;2023-03-05T00:36:18;100315.13;;;-1.11;49.14
76311;BME280;65120;59.304;18.294;2023-03-05T00:38:45;100319.44;;;-1.10;48.94
76311;BME280;65120;59.304;18.294;2023-03-05T00:41:12;100315.19;;;-1.08;49.41
76311;BME280;65120;59.304;18.294;2023-03-05T00:43:39;100320.25;;;-1.11;49.45
76311;BME280;65120;59.304;18.294;2023-03-05T00:46:06;100309.88;;;-1.18;49.28
76311;BME280;65120;59.304;18.294;2023-03-05T00:48:35;100305.53;;;-1.20;49.24
76311;BME280;65120;59.304;18.294;2023-03-05T00:51:02;100313.34;;;-1.16;49.64
76311;BME280;65120;59.304;18.294;2023-03-05T00:53:29;100313.28;;;-1.19;49.44
76311;BME280;65120;59.304;18.294;2023-03-05T00:55:56;100317.53;;;-1.19;49.11
76311;BME280;65120;59.304;18.294;2023-03-05T00:58:23;100309.88;;;-1.18;49.82
76311;BME280;65120;59.304;18.294;2023-03-05T01:00:50;100297.84;;;-1.22;49.49
76311;BME280;65120;59.304;18.294;2023-03-05T01:03:17;100308.97;;;-1.20;49.40
76311;BME280;65120;59.304;18.294;2023-03-05T01:05:45;100302.97;;;-1.22;49.76
76311;BME280;65120;59.304;18.294;2023-03-05T01:08:12;100303.81;;;-1.21;49.86
76311;BME280;65120;59.304;18.294;2023-03-05T01:10:40;100296.00;;;-1.26;49.53
76311;BME280;65120;59.304;18.294;2023-03-05T01:13:07;100300.34;;;-1.23;49.49
76311;BME280;65120;59.304;18.294;2023-03-05T01:15:34;100301.19;;;-1.24;49.80
76311;BME280;65120;59.304;18.294;2023-03-05T01:18:01;100298.56;;;-1.27;49.50
76311;BME280;65120;59.304;18.294;2023-03-05T01:20:28;100296.88;;;-1.27;49.88
76311;BME280;65120;59.304;18.294;2023-03-05T01:22:56;100283.84;;;-1.36;49.93
76311;BME280;65120;59.304;18.294;2023-03-05T01:25:23;100287.38;;;-1.31;50.27
76311;BME280;65120;59.304;18.294;2023-03-05T01:27:50;100292.50;;;-1.31;50.02
76311;BME280;65120;59.304;18.294;2023-03-05T01:30:18;100277.88;;;-1.37;49.85
76311;BME280;65120;59.304;18.294;2023-03-05T01:32:45;100289.03;;;-1.33;50.00
76311;BME280;65120;59.304;18.294;2023-03-05T01:35:15;100280.44;;;-1.35;49.87
76311;BME280;65120;59.304;18.294;2023-03-05T01:37:43;100273.59;;;-1.36;50.16
76311;BME280;65120;59.304;18.294;2023-03-05T01:40:13;100231.16;;;-1.64;49.69
76311;BME280;65120;59.304;18.294;2023-03-05T01:42:44;100265.75;;;-1.44;50.61
76311;BME280;65120;59.304;18.294;2023-03-05T01:45:13;100273.53;;;-1.39;49.96
76311;BME280;65120;59.304;18.294;2023-03-05T01:47:40;100274.34;;;-1.42;50.29
76311;BME280;65120;59.304;18.294;2023-03-05T01:50:10;100252.81;;;-1.50;50.05
76311;BME280;65120;59.304;18.294;2023-03-05T01:52:40;100267.47;;;-1.43;50.04
76311;BME280;65120;59.304;18.294;2023-03-05T01:55:13;100271.72;;;-1.43;50.43
76311;BME280;65120;59.304;18.294;2023-03-05T01:57:42;100264.81;;;-1.47;49.83
76311;BME280;65120;59.304;18.294;2023-03-05T02:00:12;100266.53;;;-1.46;50.18
76311;BME280;65120;59.304;18.294;2023-03-05T02:02:40;100271.66;;;-1.46;50.33
76311;BME280;65120;59.304;18.294;2023-03-05T02:05:10;100250.06;;;-1.58;50.55
76311;BME280;65120;59.304;18.294;2023-03-05T02:07:38;100270.75;;;-1.48;50.33
76311;BME280;65120;59.304;18.294;2023-03-05T02:10:17;100257.06;;;-1.50;50.70
76311;BME280;65120;59.304;18.294;2023-03-05T02:12:44;100241.53;;;-1.58;50.44
76311;BME280;65120;59.304;18.294;2023-03-05T02:15:12;100258.75;;;-1.51;50.32
76311;BME280;65120;59.304;18.294;2023-03-05T02:17:39;100257.88;;;-1.51;50.37
76311;BME280;65120;59.304;18.294;2023-03-05T02:20:08;100257.03;;;-1.52;50.46
76311;BME280;65120;59.304;18.294;2023-03-05T02:22:37;100259.56;;;-1.53;50.35
76311;BME280;65120;59.304;18.294;2023-03-05T02:25:12;100252.69;;;-1.54;50.83
76311;BME280;65120;59.304;18.294;2023-03-05T02:27:42;100256.09;;;-1.55;50.69
76311;BME280;65120;59.304;18.294;2023-03-05T02:30:11;100239.75;;;-1.62;50.70
76311;BME280;65120;59.304;18.294;2023-03-05T02:32:38;100242.31;;;-1.61;50.55
76311;BME280;65120;59.304;18.294;2023-03-05T02:35:05;100246.66;;;-1.58;50.62
76311;BME280;65120;59.304;18.294;2023-03-05T02:37:33;100247.44;;;-1.61;51.29
76311;BME280;65120;59.304;18.294;2023-03-05T02:40:01;100243.19;;;-1.60;50.94
76311;BME280;65120;59.304;18.294;2023-03-05T02:42:29;100241.34;;;-1.67;50.82
76311;BME280;65120;59.304;18.294;2023-03-05T02:44:58;100253.34;;;-1.63;50.78
76311;BME280;65120;59.304;18.294;2023-03-05T02:47:25;100236.16;;;-1.69;50.67
76311;BME280;65120;59.304;18.294;2023-03-05T02:49:52;100231.94;;;-1.67;51.09
76311;BME280;65120;59.304;18.294;2023-03-05T02:52:19;100238.78;;;-1.66;50.94
76311;BME280;65120;59.304;18.294;2023-03-05T02:54:47;100239.63;;;-1.67;50.94
76311;BME280;65120;59.304;18.294;2023-03-05T02:57:16;100238.72;;;-1.69;51.16
76311;BME280;65120;59.304;18.294;2023-03-05T02:59:43;100231.03;;;-1.69;51.17
76311;BME280;65120;59.304;18.294;2023-03-05T03:02:10;100228.28;;;-1.78;51.10
76311;BME280;65120;59.304;18.294;2023-03-05T03:04:38;100240.34;;;-1.72;51.34
76311;BME280;65120;59.304;18.294;2023-03-05T03:07:05;100238.59;;;-1.75;51.29
76311;BME280;65120;59.304;18.294;2023-03-05T03:09:33;100235.16;;;-1.75;51.18
76311;BME280;65120;59.304;18.294;2023-03-05T03:12:00;100237.72;;;-1.75;51.28
76311;BME280;65120;59.304;18.294;2023-03-05T03:14:31;100235.97;;;-1.78;50.88
76311;BME280;65120;59.304;18.294;2023-03-05T03:16:58;100218.66;;;-1.88;50.91
76311;BME280;65120;59.304;18.294;2023-03-05T03:19:25;100230.78;;;-1.79;51.56
76311;BME280;65120;59.304;18.294;2023-03-05T03:21:51;100228.22;;;-1.81;51.04
76311;BME280;65120;59.304;18.294;2023-03-05T03:24:19;100230.78;;;-1.81;51.38
76311;BME280;65120;59.304;18.294;2023-03-05T03:26:46;100224.78;;;-1.82;51.58
76311;BME280;65120;59.304;18.294;2023-03-05T03:29:14;100223.94;;;-1.82;51.50
76311;BME280;65120;59.304;18.294;2023-03-05T03:31:43;100221.38;;;-1.82;51.61
76311;BME280;65120;59.304;18.294;2023-03-05T03:34:10;100212.78;;;-1.84;51.75
76311;BME280;65120;59.304;18.294;2023-03-05T03:36:37;100211.03;;;-1.85;51.43
76311;BME280;65120;59.304;18.294;2023-03-05T03:39:04;100206.75;;;-1.86;51.83
76311;BME280;65120;59.304;18.294;2023-03-05T03:41:34;100215.28;;;-1.87;51.75
76311;BME280;65120;59.304;18.294;2023-03-05T03:44:01;100194.59;;;-1.96;52.09
76311;BME280;65120;59.304;18.294;2023-03-05T03:46:29;100202.34;;;-1.93;51.54
76311;BME280;65120;59.304;18.294;2023-03-05T03:48:57;100207.53;;;-1.90;51.69
76311;BME280;65120;59.304;18.294;2023-03-05T03:51:24;100201.47;;;-1.94;51.56
76311;BME280;65120;59.304;18.294;2023-03-05T03:53:51;100186.03;;;-1.97;51.86
76311;BME280;65120;59.304;18.294;2023-03-05T03:56:18;100195.53;;;-1.93;52.10
76311;BME280;65120;59.304;18.294;2023-03-05T03:58:45;100183.53;;;-1.94;51.98
76311;BME280;65120;59.304;18.294;2023-03-05T04:01:12;100197.22;;;-1.93;51.89
76311;BME280;65120;59.304;18.294;2023-03-05T04:03:39;100187.78;;;-1.96;52.00
76311;BME280;65120;59.304;18.294;2023-03-05T04:06:07;100179.19;;;-1.98;51.96
76311;BME280;65120;59.304;18.294;2023-03-05T04:08:34;100179.19;;;-1.98;52.03
76311;BME280;65120;59.304;18.294;2023-03-05T04:11:01;100183.41;;;-2.00;52.06
76311;BME280;65120;59.304;18.294;2023-03-05T04:13:28;100172.19;;;-2.05;52.37
76311;BME280;65120;59.304;18.294;2023-03-05T04:15:55;100180.00;;;-2.00;52.18
76311;BME280;65120;59.304;18.294;2023-03-05T04:18:22;100182.53;;;-2.00;52.21
76311;BME280;65120;59.304;18.294;2023-03-05T04:20:49;100183.38;;;-2.01;52.33
76311;BME280;65120;59.304;18.294;2023-03-05T04:23:18;100181.63;;;-2.03;52.34
76311;BME280;65120;59.304;18.294;2023-03-05T04:25:45;100168.78;;;-2.06;51.79
76311;BME280;65120;59.304;18.294;2023-03-05T04:28:11;100172.13;;;-2.08;52.23
76311;BME280;65120;59.304;18.294;2023-03-05T04:30:38;100173.03;;;-2.06;52.30
76311;BME280;65120;59.304;18.294;2023-03-05T04:33:06;100166.09;;;-2.12;52.49
76311;BME280;65120;59.304;18.294;2023-03-05T04:35:33;100173.00;;;-2.08;52.49
76311;BME280;65120;59.304;18.294;2023-03-05T04:37:59;100167.84;;;-2.09;52.29
76311;BME280;65120;59.304;18.294;2023-03-05T04:40:28;100163.53;;;-2.12;52.46
76311;BME280;65120;59.304;18.294;2023-03-05T04:42:54;100166.91;;;-2.13;52.61
76311;BME280;65120;59.304;18.294;2023-03-05T04:45:21;100152.34;;;-2.15;52.52
76311;BME280;65120;59.304;18.294;2023-03-05T04:47:48;100160.91;;;-2.15;52.70
76311;BME280;65120;59.304;18.294;2023-03-05T04:50:15;100160.84;;;-2.16;52.77
76311;BME280;65120;59.304;18.294;2023-03-05T04:52:43;100158.34;;;-2.15;52.56
76311;BME280;65120;59.304;18.294;2023-03-05T04:55:12;100151.50;;;-2.16;52.80
76311;BME280;65120;59.304;18.294;2023-03-05T04:57:40;100147.97;;;-2.21;52.71
76311;BME280;65120;59.304;18.294;2023-03-05T05:00:10;100148.06;;;-2.16;52.57
76311;BME280;65120;59.304;18.294;2023-03-05T05:02:38;100140.34;;;-2.18;52.82
76311;BME280;65120;59.304;18.294;2023-03-05T05:05:06;100145.50;;;-2.16;52.56
76311;BME280;65120;59.304;18.294;2023-03-05T05:07:33;100147.19;;;-2.18;52.61
76311;BME280;65120;59.304;18.294;2023-03-05T05:10:00;100148.03;;;-2.18;52.69
76311;BME280;65120;59.304;18.294;2023-03-05T05:12:27;100136.81;;;-2.23;52.90
76311;BME280;65120;59.304;18.294;2023-03-05T05:14:56;100145.47;;;-2.18;52.84
76311;BME280;65120;59.304;18.294;2023-03-05T05:17:23;100143.75;;;-2.19;52.86
76311;BME280;65120;59.304;18.294;2023-03-05T05:19:51;100136.88;;;-2.20;52.75
76311;BME280;65120;59.304;18.294;2023-03-05T05:22:19;100140.31;;;-2.19;52.69
76311;BME280;65120;59.304;18.294;2023-03-05T05:24:45;100147.97;;;-2.21;52.79
76311;BME280;65120;59.304;18.294;2023-03-05T05:27:12;100150.53;;;-2.21;52.95
76311;BME280;65120;59.304;18.294;2023-03-05T05:29:39;100138.56;;;-2.22;52.91
76311;BME280;65120;59.304;18.294;2023-03-05T05:32:08;100144.50;;;-2.23;52.96
76311;BME280;65120;59.304;18.294;2023-03-05T05:34:35;100148.75;;;-2.23;52.84
76311;BME280;65120;59.304;18.294;2023-03-05T05:37:01;100135.09;;;-2.24;52.93
76311;BME280;65120;59.304;18.294;2023-03-05T05:39:28;100140.19;;;-2.26;53.03
76311;BME280;65120;59.304;18.294;2023-03-05T05:41:56;100135.91;;;-2.27;53.17
76311;BME280;65120;59.304;18.294;2023-03-05T05:44:22;100138.41;;;-2.28;53.11
76311;BME280;65120;59.304;18.294;2023-03-05T05:46:49;100135.84;;;-2.28;53.21
76311;BME280;65120;59.304;18.294;2023-03-05T05:49:18;100139.28;;;-2.28;53.06
76311;BME280;65120;59.304;18.294;2023-03-05T05:51:44;100135.84;;;-2.28;52.94
76311;BME280;65120;59.304;18.294;2023-03-05T05:54:12;100134.13;;;-2.29;53.29
76311;BME280;65120;59.304;18.294;2023-03-05T05:56:40;100133.22;;;-2.31;53.31
76311;BME280;65120;59.304;18.294;2023-03-05T05:59:07;100135.78;;;-2.31;53.24
76311;BME280;65120;59.304;18.294;2023-03-05T06:01:35;100137.47;;;-2.32;53.59
76311;BME280;65120;59.304;18.294;2023-03-05T06:04:02;100134.06;;;-2.32;53.63
76311;BME280;65120;59.304;18.294;2023-03-05T06:06:31;100133.22;;;-2.31;53.33
76311;BME280;65120;59.304;18.294;2023-03-05T06:08:59;100127.25;;;-2.32;53.36
76311;BME280;65120;59.304;18.294;2023-03-05T06:11:26;100125.56;;;-2.31;53.71
76311;BME280;65120;59.304;18.294;2023-03-05T06:13:53;100133.22;;;-2.31;53.55
76311;BME280;65120;59.304;18.294;2023-03-05T06:16:23;100124.66;;;-2.33;53.62
76311;BME280;65120;59.304;18.294;2023-03-05T06:18:50;100113.47;;;-2.38;53.50
76311;BME280;65120;59.304;18.294;2023-03-05T06:21:19;100118.66;;;-2.34;53.77
76311;BME280;65120;59.304;18.294;2023-03-05T06:23:48;100129.06;;;-2.28;54.05
76311;BME280;65120;59.304;18.294;2023-03-05T06:26:16;100125.63;;;-2.28;53.76
76311;BME280;65120;59.304;18.294;2023-03-05T06:28:44;100118.72;;;-2.32;53.16
76311;BME280;65120;59.304;18.294;2023-03-05T06:31:12;100123.06;;;-2.28;53.78
76311;BME280;65120;59.304;18.294;2023-03-05T06:33:41;100121.38;;;-2.28;53.60
76311;BME280;65120;59.304;18.294;2023-03-05T06:36:10;100124.88;;;-2.24;53.71
76311;BME280;65120;59.304;18.294;2023-03-05T06:38:37;100099.91;;;-2.34;53.75
76311;BME280;65120;59.304;18.294;2023-03-05T06:41:07;100115.44;;;-2.25;53.65
76311;BME280;65120;59.304;18.294;2023-03-05T06:43:36;100112.88;;;-2.25;53.66
76311;BME280;65120;59.304;18.294;2023-03-05T06:46:05;100125.84;;;-2.19;54.00
76311;BME280;65120;59.304;18.294;2023-03-05T06:48:33;100125.84;;;-2.19;53.70
76311;BME280;65120;59.304;18.294;2023-03-05T06:51:00;100125.00;;;-2.18;53.80
76311;BME280;65120;59.304;18.294;2023-03-05T06:53:29;100131.09;;;-2.13;53.63
76311;BME280;65120;59.304;18.294;2023-03-05T06:55:56;100128.59;;;-2.10;53.77
76311;BME280;65120;59.304;18.294;2023-03-05T06:58:24;100123.50;;;-2.08;53.86
76311;BME280;65120;59.304;18.294;2023-03-05T07:00:51;100127.81;;;-2.07;53.78
76311;BME280;65120;59.304;18.294;2023-03-05T07:03:18;100120.19;;;-2.04;53.78
76311;BME280;65120;59.304;18.294;2023-03-05T07:05:45;100115.03;;;-2.06;53.78
76311;BME280;65120;59.304;18.294;2023-03-05T07:08:12;100115.16;;;-1.99;53.84
76311;BME280;65120;59.304;18.294;2023-03-05T07:10:40;100121.19;;;-1.97;53.44
76311;BME280;65120;59.304;18.294;2023-03-05T07:13:09;100115.25;;;-1.96;53.85
76311;BME280;65120;59.304;18.294;2023-03-05T07:15:39;100120.44;;;-1.93;53.64
76311;BME280;65120;59.304;18.294;2023-03-05T07:18:06;100102.47;;;-1.96;53.55
76311;BME280;65120;59.304;18.294;2023-03-05T07:20:33;100105.88;;;-1.96;53.72
76311;BME280;65120;59.304;18.294;2023-03-05T07:23:01;100118.88;;;-1.85;53.89
76311;BME280;65120;59.304;18.294;2023-03-05T07:25:28;100112.94;;;-1.84;53.80
76311;BME280;65120;59.304;18.294;2023-03-05T07:27:55;100110.44;;;-1.81;53.92
76311;BME280;65120;59.304;18.294;2023-03-05T07:30:22;100107.94;;;-1.78;53.67
76311;BME280;65120;59.304;18.294;2023-03-05T07:32:51;100108.88;;;-1.74;53.95
76311;BME280;65120;59.304;18.294;2023-03-05T07:35:18;100102.09;;;-1.71;53.54
76311;BME280;65120;59.304;18.294;2023-03-05T07:37:44;100102.19;;;-1.68;53.54
76311;BME280;65120;59.304;18.294;2023-03-05T07:40:12;100095.44;;;-1.63;53.99
76311;BME280;65120;59.304;18.294;2023-03-05T07:42:38;100091.28;;;-1.58;53.85
76311;BME280;65120;59.304;18.294;2023-03-05T07:45:07;100099.94;;;-1.52;53.87
76311;BME280;65120;59.304;18.294;2023-03-05T07:47:34;100082.84;;;-1.52;53.52
76311;BME280;65120;59.304;18.294;2023-03-05T07:50:03;100094.22;;;-1.39;53.44
76311;BME280;65120;59.304;18.294;2023-03-05T07:52:30;100071.88;;;-1.46;53.43
76311;BME280;65120;59.304;18.294;2023-03-05T07:54:57;100087.66;;;-1.25;53.77
76311;BME280;65120;59.304;18.294;2023-03-05T07:57:24;100088.59;;;-1.18;53.56
76311;BME280;65120;59.304;18.294;2023-03-05T07:59:50;100089.63;;;-1.08;53.42
76311;BME280;65120;59.304;18.294;2023-03-05T08:02:17;100089.81;;;-0.99;53.52
76311;BME280;65120;59.304;18.294;2023-03-05T08:04:45;100083.97;;;-0.91;53.32
76311;BME280;65120;59.304;18.294;2023-03-05T08:07:15;100091.78;;;-0.83;53.55
76311;BME280;65120;59.304;18.294;2023-03-05T08:09:41;100074.81;;;-0.76;53.24
76311;BME280;65120;59.304;18.294;2023-03-05T08:12:09;100086.00;;;-0.70;53.32
76311;BME280;65120;59.304;18.294;2023-03-05T08:14:36;100079.38;;;-0.57;53.45
76311;BME280;65120;59.304;18.294;2023-03-05T08:17:03;100080.38;;;-0.47;52.85
76311;BME280;65120;59.304;18.294;2023-03-05T08:19:31;100083.06;;;-0.38;52.89
76311;BME280;65120;59.304;18.294;2023-03-05T08:21:58;100075.41;;;-0.35;53.04
76311;BME280;65120;59.304;18.294;2023-03-05T08:24:26;100073.91;;;-0.20;53.14
76311;BME280;65120;59.304;18.294;2023-03-05T08:26:55;100077.41;;;-0.17;53.09
76311;BME280;65120;59.304;18.294;2023-03-05T08:29:23;100069.00;;;-0.04;52.75
76311;BME280;65120;59.304;18.294;2023-03-05T08:31:50;100063.97;;;0.04;52.19
76311;BME280;65120;59.304;18.294;2023-03-05T08:34:18;100061.50;;;0.12;52.14
76311;BME280;65120;59.304;18.294;2023-03-05T08:36:45;100060.75;;;0.22;51.71
76311;BME280;65120;59.304;18.294;2023-03-05T08:39:12;100055.72;;;0.30;52.15
76311;BME280;65120;59.304;18.294;2023-03-05T08:41:40;100060.06;;;0.37;52.32
76311;BME280;65120;59.304;18.294;2023-03-05T08:44:07;100047.34;;;0.46;52.27
76311;BME280;65120;59.304;18.294;2023-03-05T08:46:34;100038.00;;;0.54;52.00
76311;BME280;65120;59.304;18.294;2023-03-05T08:49:01;100038.94;;;0.62;51.93
76311;BME280;65120;59.304;18.294;2023-03-05T08:51:28;100038.13;;;0.68;52.07
76311;BME280;65120;59.304;18.294;2023-03-05T08:53:57;100028.78;;;0.75;51.88
76311;BME280;65120;59.304;18.294;2023-03-05T08:56:24;100022.00;;;0.80;51.41
76311;BME280;65120;59.304;18.294;2023-03-05T08:58:54;100022.06;;;0.89;51.68
76311;BME280;65120;59.304;18.294;2023-03-05T09:01:21;100017.81;;;0.96;51.45
76311;BME280;65120;59.304;18.294;2023-03-05T09:03:48;100016.16;;;1.01;51.24
76311;BME280;65120;59.304;18.294;2023-03-05T09:06:15;100009.31;;;1.04;50.77
76311;BME280;65120;59.304;18.294;2023-03-05T09:08:42;100010.22;;;1.11;51.35
76311;BME280;65120;59.304;18.294;2023-03-05T09:11:11;100008.53;;;1.13;51.09
76311;BME280;65120;59.304;18.294;2023-03-05T09:13:39;100008.56;;;1.18;50.90
76311;BME280;65120;59.304;18.294;2023-03-05T09:16:10;100019.75;;;1.24;50.63
76311;BME280;65120;59.304;18.294;2023-03-05T09:18:37;100026.66;;;1.28;50.72
76311;BME280;65120;59.304;18.294;2023-03-05T09:21:05;100026.69;;;1.31;50.76
76311;BME280;65120;59.304;18.294;2023-03-05T09:23:33;100023.25;;;1.32;50.52
76311;BME280;65120;59.304;18.294;2023-03-05T09:26:00;100025.88;;;1.37;50.30
76311;BME280;65120;59.304;18.294;2023-03-05T09:28:27;100026.72;;;1.38;50.61
76311;BME280;65120;59.304;18.294;2023-03-05T09:30:53;100019.84;;;1.38;50.26
76311;BME280;65120;59.304;18.294;2023-03-05T09:33:22;100014.72;;;1.40;50.42
76311;BME280;65120;59.304;18.294;2023-03-05T09:35:49;100019.00;;;1.42;50.19
76311;BME280;65120;59.304;18.294;2023-03-05T09:38:15;100014.75;;;1.43;50.33
76311;BME280;65120;59.304;18.294;2023-03-05T09:40:51;100008.75;;;1.45;50.29
76311;BME280;65120;59.304;18.294;2023-03-05T09:43:30;100007.03;;;1.47;49.96
76311;BME280;65120;59.304;18.294;2023-03-05T09:46:08;100007.91;;;1.49;50.03
76311;BME280;65120;59.304;18.294;2023-03-05T09:48:48;99999.34;;;1.52;49.56
76311;BME280;65120;59.304;18.294;2023-03-05T09:51:22;100005.44;;;1.66;50.46
76311;BME280;65120;59.304;18.294;2023-03-05T09:53:56;99990.91;;;1.74;49.40
76311;BME280;65120;59.304;18.294;2023-03-05T09:56:28;100000.41;;;1.92;49.64
76311;BME280;65120;59.304;18.294;2023-03-05T09:58:58;99990.13;;;1.95;49.87
76311;BME280;65120;59.304;18.294;2023-03-05T10:01:29;99995.28;;;2.05;49.41
76311;BME280;65120;59.304;18.294;2023-03-05T10:04:08;100000.47;;;2.08;49.46
76311;BME280;65120;59.304;18.294;2023-03-05T10:06:39;99991.03;;;2.08;49.14
76311;BME280;65120;59.304;18.294;2023-03-05T10:09:17;99997.03;;;2.09;49.48
76311;BME280;65120;59.304;18.294;2023-03-05T10:11:50;99995.31;;;2.08;49.06
76311;BME280;65120;59.304;18.294;2023-03-05T10:14:24;99997.03;;;2.06;49.31
76311;BME280;65120;59.304;18.294;2023-03-05T10:17:17;99995.28;;;2.05;48.68
76311;BME280;65120;59.304;18.294;2023-03-05T10:20:14;99995.28;;;2.05;49.30
76311;BME280;65120;59.304;18.294;2023-03-05T10:23:02;99996.16;;;2.03;48.80
76311;BME280;65120;59.304;18.294;2023-03-05T10:25:47;99989.28;;;2.04;48.75
76311;BME280;65120;59.304;18.294;2023-03-05T10:28:17;99983.28;;;2.03;48.72
76311;BME280;65120;59.304;18.294;2023-03-05T10:33:52;99991.88;;;2.02;48.97
76311;BME280;65120;59.304;18.294;2023-03-05T10:36:36;99994.44;;;2.07;49.11
76311;BME280;65120;59.304;18.294;2023-03-05T10:42:21;99983.31;;;2.08;48.64
76311;BME280;65120;59.304;18.294;2023-03-05T10:44:51;99994.47;;;2.09;48.15
76311;BME280;65120;59.304;18.294;2023-03-05T10:47:23;99985.00;;;2.08;48.76
76311;BME280;65120;59.304;18.294;2023-03-05T10:49:52;99986.75;;;2.09;48.79
76311;BME280;65120;59.304;18.294;2023-03-05T10:52:26;99989.31;;;2.10;48.76
76311;BME280;65120;59.304;18.294;2023-03-05T10:54:55;99969.53;;;2.05;48.29
76311;BME280;65120;59.304;18.294;2023-03-05T10:57:24;99985.03;;;2.14;48.68
76311;BME280;65120;59.304;18.294;2023-03-05T10:59:52;99986.75;;;2.15;48.29
76311;BME280;65120;59.304;18.294;2023-03-05T11:02:20;99979.03;;;2.15;48.51
76311;BME280;65120;59.304;18.294;2023-03-05T11:04:48;99975.59;;;2.16;48.55
76311;BME280;65120;59.304;18.294;2023-03-05T11:07:36;99979.03;;;2.18;48.50
76311;BME280;65120;59.304;18.294;2023-03-05T11:10:17;99974.75;;;2.17;48.76
76311;BME280;65120;59.304;18.294;2023-03-05T11:12:46;99973.00;;;2.19;48.15
76311;BME280;65120;59.304;18.294;2023-03-05T11:15:29;99968.75;;;2.19;47.96
76311;BME280;65120;59.304;18.294;2023-03-05T11:18:19;99961.84;;;2.18;48.33
76311;BME280;65120;59.304;18.294;2023-03-05T11:20:49;99963.59;;;2.19;48.18
76311;BME280;65120;59.304;18.294;2023-03-05T11:23:19;99958.44;;;2.19;47.63
76311;BME280;65120;59.304;18.294;2023-03-05T11:26:15;99955.88;;;2.19;48.37
76311;BME280;65120;59.304;18.294;2023-03-05T11:28:55;99957.56;;;2.19;48.52
76311;BME280;65120;59.304;18.294;2023-03-05T11:31:24;99953.28;;;2.19;48.04
76311;BME280;65120;59.304;18.294;2023-03-05T11:33:57;99961.00;;;2.21;48.28
76311;BME280;65120;59.304;18.294;2023-03-05T11:36:28;99952.41;;;2.20;47.90
76311;BME280;65120;59.304;18.294;2023-03-05T11:38:58;99950.69;;;2.21;47.77
76311;BME280;65120;59.304;18.294;2023-03-05T11:41:31;99949.00;;;2.23;48.22
76311;BME280;65120;59.304;18.294;2023-03-05T11:44:00;99949.84;;;2.23;47.69
76311;BME280;65120;59.304;18.294;2023-03-05T11:46:37;99944.72;;;2.25;48.23
76311;BME280;65120;59.304;18.294;2023-03-05T11:49:05;99950.72;;;2.25;47.65
76311;BME280;65120;59.304;18.294;2023-03-05T11:51:39;99943.84;;;2.23;47.82
76311;BME280;65120;59.304;18.294;2023-03-05T11:54:13;99948.13;;;2.27;48.30
76311;BME280;65120;59.304;18.294;2023-03-05T11:56:42;99945.56;;;2.27;47.74
76311;BME280;65120;59.304;18.294;2023-03-05T11:59:15;99940.41;;;2.30;47.95
76311;BME280;65120;59.304;18.294;2023-03-05T12:01:48;99944.69;;;2.30;47.78
76311;BME280;65120;59.304;18.294;2023-03-05T12:04:15;99930.09;;;2.25;48.38
76311;BME280;65120;59.304;18.294;2023-03-05T12:06:45;99938.69;;;2.32;48.23
76311;BME280;65120;59.304;18.294;2023-03-05T12:09:21;99937.84;;;2.35;48.00
76311;BME280;65120;59.304;18.294;2023-03-05T12:11:52;99937.84;;;2.36;48.28
76311;BME280;65120;59.304;18.294;2023-03-05T12:14:24;99926.69;;;2.37;47.68
76311;BME280;65120;59.304;18.294;2023-03-05T12:16:59;99938.69;;;2.38;48.08
76311;BME280;65120;59.304;18.294;2023-03-05T12:19:33;99936.13;;;2.38;48.38
76311;BME280;65120;59.304;18.294;2023-03-05T12:22:04;99937.00;;;2.40;47.77
76311;BME280;65120;59.304;18.294;2023-03-05T12:24:41;99934.41;;;2.42;47.58
76311;BME280;65120;59.304;18.294;2023-03-05T12:27:16;99918.06;;;2.38;47.77
76311;BME280;65120;59.304;18.294;2023-03-05T12:29:57;99922.38;;;2.41;47.49
76311;BME280;65120;59.304;18.294;2023-03-05T12:32:59;99926.69;;;2.45;48.17
76311;BME280;65120;59.304;18.294;2023-03-05T12:35:36;99936.13;;;2.44;48.50
76311;BME280;65120;59.304;18.294;2023-03-05T12:38:18;99937.00;;;2.45;48.24
76311;BME280;65120;59.304;18.294;2023-03-05T12:44:18;99943.00;;;2.48;48.09
76311;BME280;65120;59.304;18.294;2023-03-05T12:47:14;99928.41;;;2.46;48.18
76311;BME280;65120;59.304;18.294;2023-03-05T12:49:45;99939.59;;;2.51;47.35
76311;BME280;65120;59.304;18.294;2023-03-05T12:52:20;99936.16;;;2.51;47.41
76311;BME280;65120;59.304;18.294;2023-03-05T12:57:37;99941.28;;;2.52;47.24
76311;BME280;65120;59.304;18.294;2023-03-05T13:00:09;99938.72;;;2.52;47.90
76311;BME280;65120;59.304;18.294;2023-03-05T13:02:39;99940.44;;;2.52;48.05
76311;BME280;65120;59.304;18.294;2023-03-05T13:05:16;99930.13;;;2.52;48.38
76311;BME280;65120;59.304;18.294;2023-03-05T13:07:45;99933.56;;;2.51;48.00
76311;BME280;65120;59.304;18.294;2023-03-05T13:10:20;99929.28;;;2.51;47.69